createdAt,value
2023-03-20T00:00:51.025Z,32.98
2023-03-20T04:04:39.673Z,33.03
2023-03-20T04:28:40.433Z,32.93
2023-03-20T04:32:40.581Z,32.78
2023-03-20T04:36:40.625Z,32.74
2023-03-20T04:40:40.719Z,32.69
2023-03-20T04:44:40.772Z,32.65
2023-03-20T07:04:41.603Z,36.82
2023-03-20T08:48:41.827Z,37.16
2023-03-20T08:52:42.052Z,37.63
2023-03-20T09:00:42.038Z,38.91
2023-03-20T09:08:42.039Z,39.25
2023-03-20T09:12:42.058Z,39.17
2023-03-20T09:16:42.047Z,39.44
2023-03-20T09:28:43.565Z,39.70
2023-03-20T09:32:42.594Z,39.55
2023-03-20T09:36:42.139Z,39.51
2023-03-20T09:40:42.558Z,39.25
2023-03-20T09:44:42.595Z,39.04
2023-03-20T09:48:42.058Z,39.15
2023-03-20T09:52:42.104Z,39.21
2023-03-20T09:56:41.982Z,39.54
2023-03-20T10:00:42.091Z,39.46
2023-03-20T10:04:42.571Z,39.33
2023-03-20T10:08:42.563Z,39.50
2023-03-20T10:12:42.523Z,39.40
2023-03-20T10:16:43.083Z,39.20
2023-03-20T10:20:43.084Z,39.49
2023-03-20T10:24:43.070Z,39.72
2023-03-20T10:32:43.423Z,39.37
2023-03-20T10:36:43.565Z,39.14
2023-03-20T10:40:51.467Z,39.16
2023-03-20T10:44:44.142Z,39.38
2023-03-20T10:48:44.093Z,39.34
2023-03-20T10:52:43.656Z,38.92
2023-03-20T10:56:43.617Z,39.08
2023-03-20T11:00:44.136Z,38.96
2023-03-20T11:04:44.103Z,39.04
2023-03-20T11:08:44.085Z,39.13
2023-03-20T11:12:43.848Z,39.19
2023-03-20T11:16:44.200Z,39.21
2023-03-20T11:20:44.124Z,40.19
2023-03-20T11:24:44.088Z,39.94
2023-03-20T11:28:43.757Z,39.24
2023-03-20T11:32:44.170Z,39.26
2023-03-20T11:36:44.117Z,39.22
2023-03-20T11:40:44.121Z,38.51
2023-03-20T11:44:44.592Z,38.60
2023-03-20T11:48:44.595Z,38.88
2023-03-20T12:00:44.985Z,38.45
2023-03-20T12:04:45.603Z,38.37
2023-03-20T12:12:45.703Z,38.37
2023-03-20T23:04:50.413Z,37.11
2023-03-20T23:08:55.218Z,37.08
2023-03-20T23:12:50.338Z,37.07
2023-03-20T23:16:50.377Z,37.04
2023-03-20T23:20:50.331Z,37.00
2023-03-20T23:24:51.139Z,36.95
